NWS308 UNOO-ULLI
Flight info
| Callsign | NWS308 |
|---|---|
| Flight time | 3h 41m |
| Altitude | 34000 |
| Route | BUNET6D BUNET B236 LUKAS A305 TINRI N987 GIKES P982 ANDAT M60 APSAS L259 PRIBI P979 BEPOL BEPOL1B |
| Aircraft | A21N/M-VGDW/C |
Departure
| Time | 2026-05-05 10:26 |
|---|---|
| Airport | Omsk Central Airport (UNOO) |
Arrival
| Time | 2026-05-05 14:07 |
|---|---|
| Airport | Pulkovo Airport (ULLI) |
| Time | Latitude | Longitude | Altitude | Speed | Heading |
|---|---|---|---|---|---|
| 2026-05-05 10:22 | 54.96356 | 73.32044 | 298 ft | 1 kts | 137° |
| 2026-05-05 10:22 | 54.96339 | 73.32072 | 302 ft | 7 kts | 137° |
| 2026-05-05 10:22 | 54.96324 | 73.32137 | 299 ft | 10 kts | 88° |
| 2026-05-05 10:23 | 54.96479 | 73.32343 | 299 ft | 13 kts | 75° |
| 2026-05-05 10:23 | 54.96501 | 73.32513 | 300 ft | 16 kts | 77° |
| 2026-05-05 10:23 | 54.96527 | 73.32708 | 299 ft | 18 kts | 77° |
| 2026-05-05 10:24 | 54.96556 | 73.32928 | 300 ft | 20 kts | 77° |
| 2026-05-05 10:24 | 54.96644 | 73.33030 | 301 ft | 17 kts | 343° |
| 2026-05-05 10:24 | 54.96760 | 73.32994 | 299 ft | 18 kts | 346° |
| 2026-05-05 10:24 | 54.96892 | 73.32937 | 299 ft | 20 kts | 347° |
| 2026-05-05 10:25 | 54.96957 | 73.32856 | 302 ft | 8 kts | 259° |
| 2026-05-05 10:25 | 54.96934 | 73.32680 | 307 ft | 42 kts | 256° |
| 2026-05-05 10:25 | 54.96802 | 73.31706 | 304 ft | 120 kts | 257° |
| 2026-05-05 10:25 | 54.96566 | 73.29935 | 351 ft | 176 kts | 255° |
| 2026-05-05 10:26 | 54.96274 | 73.27898 | 1181 ft | 171 kts | 253° |
| 2026-05-05 10:26 | 54.96005 | 73.25861 | 1986 ft | 174 kts | 254° |
| 2026-05-05 10:26 | 54.95730 | 73.23774 | 2645 ft | 188 kts | 253° |
| 2026-05-05 10:26 | 54.95436 | 73.21480 | 3234 ft | 200 kts | 254° |
| 2026-05-05 10:27 | 54.95105 | 73.19027 | 3788 ft | 216 kts | 254° |
| 2026-05-05 10:27 | 54.94729 | 73.16362 | 4316 ft | 238 kts | 253° |
| 2026-05-05 10:27 | 54.94324 | 73.13485 | 5014 ft | 247 kts | 255° |
| 2026-05-05 10:27 | 54.93943 | 73.10580 | 5944 ft | 249 kts | 256° |
| 2026-05-05 10:28 | 54.93559 | 73.07624 | 6799 ft | 250 kts | 256° |
| 2026-05-05 10:28 | 54.93165 | 73.04671 | 7687 ft | 252 kts | 257° |
| 2026-05-05 10:28 | 54.93077 | 73.01606 | 8525 ft | 258 kts | 274° |
| 2026-05-05 10:28 | 54.93596 | 72.98596 | 9416 ft | 265 kts | 294° |
| 2026-05-05 10:29 | 54.94732 | 72.96056 | 10151 ft | 281 kts | 313° |
| 2026-05-05 10:29 | 54.96367 | 72.93905 | 10429 ft | 307 kts | 319° |
| 2026-05-05 10:29 | 54.98172 | 72.91686 | 10672 ft | 328 kts | 319° |
| 2026-05-05 10:29 | 55.00070 | 72.89377 | 11292 ft | 335 kts | 319° |
| 2026-05-05 10:30 | 55.01986 | 72.87036 | 12024 ft | 338 kts | 318° |
| 2026-05-05 10:30 | 55.03925 | 72.84644 | 12732 ft | 342 kts | 317° |
| 2026-05-05 10:30 | 55.05881 | 72.82208 | 13402 ft | 348 kts | 317° |
| 2026-05-05 10:30 | 55.07858 | 72.79734 | 14057 ft | 351 kts | 317° |
| 2026-05-05 10:31 | 55.09843 | 72.77240 | 14739 ft | 352 kts | 316° |
| 2026-05-05 10:31 | 55.11838 | 72.74726 | 15410 ft | 354 kts | 316° |
| 2026-05-05 10:31 | 55.13814 | 72.72212 | 16084 ft | 354 kts | 314° |
| 2026-05-05 10:31 | 55.15618 | 72.69316 | 16709 ft | 350 kts | 305° |
| 2026-05-05 10:32 | 55.17106 | 72.65980 | 17321 ft | 346 kts | 296° |
| 2026-05-05 10:32 | 55.18301 | 72.62323 | 17912 ft | 347 kts | 293° |
| 2026-05-05 10:32 | 55.19464 | 72.58599 | 18436 ft | 350 kts | 293° |
| 2026-05-05 10:32 | 55.20650 | 72.54844 | 18955 ft | 354 kts | 293° |
| 2026-05-05 10:33 | 55.21849 | 72.51060 | 19481 ft | 356 kts | 293° |
| 2026-05-05 10:33 | 55.23043 | 72.47294 | 19978 ft | 359 kts | 293° |
| 2026-05-05 10:33 | 55.24262 | 72.43442 | 20498 ft | 362 kts | 293° |
| 2026-05-05 10:33 | 55.25489 | 72.39556 | 20985 ft | 365 kts | 293° |
| 2026-05-05 10:34 | 55.26723 | 72.35644 | 21495 ft | 368 kts | 293° |
| 2026-05-05 10:34 | 55.27967 | 72.31694 | 21992 ft | 371 kts | 293° |
| 2026-05-05 10:34 | 55.29217 | 72.27719 | 22478 ft | 373 kts | 293° |
| 2026-05-05 10:34 | 55.30472 | 72.23718 | 22956 ft | 376 kts | 293° |
| 2026-05-05 10:35 | 55.31738 | 72.19677 | 23454 ft | 379 kts | 292° |
| 2026-05-05 10:35 | 55.32992 | 72.15665 | 23906 ft | 380 kts | 292° |
| 2026-05-05 10:35 | 55.34267 | 72.11580 | 24391 ft | 380 kts | 292° |
| 2026-05-05 10:35 | 55.35542 | 72.07487 | 24847 ft | 382 kts | 292° |
| 2026-05-05 10:36 | 55.36821 | 72.03372 | 25330 ft | 383 kts | 292° |
| 2026-05-05 10:36 | 55.38100 | 71.99249 | 25774 ft | 385 kts | 292° |
| 2026-05-05 10:36 | 55.39383 | 71.95103 | 26136 ft | 387 kts | 292° |
| 2026-05-05 10:36 | 55.40669 | 71.90943 | 26526 ft | 388 kts | 292° |
| 2026-05-05 10:37 | 55.41957 | 71.86770 | 26894 ft | 389 kts | 292° |
| 2026-05-05 10:37 | 55.43250 | 71.82576 | 27252 ft | 390 kts | 292° |
| 2026-05-05 10:37 | 55.44546 | 71.78359 | 27604 ft | 392 kts | 292° |
| 2026-05-05 10:37 | 55.45844 | 71.74132 | 27943 ft | 393 kts | 292° |
| 2026-05-05 10:38 | 55.47128 | 71.69941 | 28287 ft | 394 kts | 291° |
| 2026-05-05 10:38 | 55.48431 | 71.65683 | 28606 ft | 395 kts | 291° |
| 2026-05-05 10:38 | 55.49737 | 71.61405 | 28910 ft | 396 kts | 291° |
| 2026-05-05 10:38 | 55.51046 | 71.57111 | 29215 ft | 397 kts | 291° |
| 2026-05-05 10:39 | 55.52357 | 71.52802 | 29508 ft | 399 kts | 291° |
| 2026-05-05 10:39 | 55.53668 | 71.48487 | 29781 ft | 400 kts | 291° |
| 2026-05-05 10:39 | 55.54984 | 71.44146 | 30050 ft | 401 kts | 291° |
| 2026-05-05 10:39 | 55.56306 | 71.39775 | 30288 ft | 403 kts | 291° |
| 2026-05-05 10:40 | 55.57627 | 71.35397 | 30517 ft | 404 kts | 291° |
| 2026-05-05 10:40 | 55.58934 | 71.31061 | 30756 ft | 406 kts | 291° |
| 2026-05-05 10:40 | 55.60265 | 71.26639 | 31005 ft | 407 kts | 291° |
| 2026-05-05 10:40 | 55.61596 | 71.22211 | 31317 ft | 406 kts | 291° |
| 2026-05-05 10:41 | 55.62916 | 71.17798 | 31645 ft | 405 kts | 291° |
| 2026-05-05 10:41 | 55.64224 | 71.13391 | 31955 ft | 404 kts | 291° |
| 2026-05-05 10:41 | 55.65517 | 71.09029 | 32260 ft | 403 kts | 291° |
| 2026-05-05 10:41 | 55.66816 | 71.04639 | 32556 ft | 402 kts | 291° |
| 2026-05-05 10:42 | 55.69402 | 70.95879 | 33107 ft | 400 kts | 291° |
| 2026-05-05 10:42 | 55.70691 | 70.91501 | 33362 ft | 400 kts | 291° |
| 2026-05-05 10:42 | 55.71979 | 70.87122 | 33623 ft | 399 kts | 291° |
| 2026-05-05 10:43 | 55.73260 | 70.82754 | 33839 ft | 399 kts | 291° |
| 2026-05-05 10:43 | 55.75826 | 70.73993 | 33844 ft | 399 kts | 290° |
| 2026-05-05 10:44 | 55.78374 | 70.65258 | 33841 ft | 401 kts | 290° |
| 2026-05-05 10:44 | 55.80941 | 70.56422 | 33832 ft | 401 kts | 290° |
| 2026-05-05 10:45 | 55.83508 | 70.47558 | 33840 ft | 404 kts | 290° |
| 2026-05-05 10:45 | 55.86048 | 70.38755 | 33815 ft | 400 kts | 290° |
| 2026-05-05 10:46 | 55.88577 | 70.29961 | 33795 ft | 397 kts | 290° |
| 2026-05-05 10:46 | 55.91107 | 70.21105 | 33840 ft | 406 kts | 290° |
| 2026-05-05 10:47 | 55.93683 | 70.12067 | 33839 ft | 409 kts | 290° |
| 2026-05-05 10:47 | 55.96243 | 70.03062 | 33840 ft | 410 kts | 290° |
| 2026-05-05 10:48 | 55.98822 | 69.93948 | 33843 ft | 411 kts | 290° |
| 2026-05-05 10:48 | 56.01403 | 69.84789 | 33844 ft | 413 kts | 290° |
| 2026-05-05 10:49 | 56.03549 | 69.77146 | 33846 ft | 414 kts | 290° |
| 2026-05-05 10:49 | 56.06550 | 69.66415 | 33843 ft | 415 kts | 290° |
| 2026-05-05 10:50 | 56.08752 | 69.58759 | 33838 ft | 417 kts | 293° |
| 2026-05-05 10:50 | 56.11753 | 69.49787 | 33844 ft | 421 kts | 294° |
| 2026-05-05 10:51 | 56.14690 | 69.40704 | 33850 ft | 419 kts | 291° |
| 2026-05-05 10:51 | 56.17288 | 69.31339 | 33846 ft | 419 kts | 290° |
| 2026-05-05 10:52 | 56.19854 | 69.21995 | 33849 ft | 421 kts | 290° |
| 2026-05-05 10:52 | 56.22441 | 69.12555 | 33855 ft | 421 kts | 290° |
| 2026-05-05 10:53 | 56.25021 | 69.03105 | 33850 ft | 421 kts | 290° |
| 2026-05-05 10:53 | 56.27599 | 68.93621 | 33841 ft | 422 kts | 290° |
| 2026-05-05 10:54 | 56.30181 | 68.84081 | 33854 ft | 425 kts | 290° |
| 2026-05-05 10:54 | 56.32770 | 68.74473 | 33877 ft | 427 kts | 290° |
| 2026-05-05 10:55 | 56.35362 | 68.64822 | 33886 ft | 427 kts | 290° |
| 2026-05-05 10:55 | 56.37925 | 68.55234 | 33870 ft | 427 kts | 290° |
| 2026-05-05 10:56 | 56.40496 | 68.45577 | 33870 ft | 427 kts | 290° |
| 2026-05-05 10:56 | 56.43065 | 68.35880 | 33878 ft | 428 kts | 290° |
| 2026-05-05 10:57 | 56.45633 | 68.26148 | 33878 ft | 428 kts | 290° |
| 2026-05-05 10:57 | 56.48173 | 68.16483 | 33870 ft | 428 kts | 290° |
| 2026-05-05 10:58 | 56.50727 | 68.06720 | 33876 ft | 429 kts | 290° |
| 2026-05-05 10:58 | 56.53276 | 67.96935 | 33874 ft | 429 kts | 290° |
| 2026-05-05 10:59 | 56.55804 | 67.87186 | 33886 ft | 430 kts | 290° |
| 2026-05-05 10:59 | 56.58344 | 67.77351 | 33873 ft | 431 kts | 290° |
| 2026-05-05 11:00 | 56.60887 | 67.67458 | 33888 ft | 432 kts | 290° |
| 2026-05-05 11:00 | 56.63409 | 67.57603 | 33880 ft | 432 kts | 290° |
| 2026-05-05 11:01 | 56.65942 | 67.47664 | 33884 ft | 433 kts | 290° |
| 2026-05-05 11:01 | 56.68473 | 67.37686 | 33895 ft | 434 kts | 290° |
| 2026-05-05 11:02 | 56.71005 | 67.27661 | 33898 ft | 435 kts | 290° |
| 2026-05-05 11:02 | 56.73513 | 67.17684 | 33898 ft | 436 kts | 291° |
| 2026-05-05 11:03 | 56.76037 | 67.07599 | 33895 ft | 437 kts | 291° |
| 2026-05-05 11:03 | 56.78555 | 66.97489 | 33894 ft | 437 kts | 291° |
| 2026-05-05 11:04 | 56.81049 | 66.87436 | 33891 ft | 438 kts | 291° |
| 2026-05-05 11:04 | 56.83554 | 66.77290 | 33899 ft | 438 kts | 290° |
| 2026-05-05 11:05 | 56.85909 | 66.67239 | 33914 ft | 438 kts | 290° |
| 2026-05-05 11:05 | 56.88323 | 66.56994 | 33902 ft | 438 kts | 290° |
| 2026-05-05 11:06 | 56.90713 | 66.46788 | 33896 ft | 438 kts | 290° |
| 2026-05-05 11:06 | 56.93098 | 66.36518 | 33893 ft | 438 kts | 290° |
| 2026-05-05 11:07 | 56.95475 | 66.26230 | 33892 ft | 438 kts | 290° |
| 2026-05-05 11:07 | 56.97843 | 66.15929 | 33893 ft | 438 kts | 290° |
| 2026-05-05 11:08 | 57.00204 | 66.05611 | 33891 ft | 438 kts | 290° |
| 2026-05-05 11:08 | 57.02549 | 65.95332 | 33890 ft | 438 kts | 290° |
| 2026-05-05 11:09 | 57.04901 | 65.84985 | 33889 ft | 438 kts | 290° |
| 2026-05-05 11:09 | 57.07241 | 65.74634 | 33887 ft | 439 kts | 291° |
| 2026-05-05 11:10 | 57.09562 | 65.64313 | 33888 ft | 439 kts | 291° |
| 2026-05-05 11:10 | 57.11884 | 65.53942 | 33886 ft | 439 kts | 291° |
| 2026-05-05 11:11 | 57.14205 | 65.43520 | 33887 ft | 439 kts | 291° |
| 2026-05-05 11:11 | 57.16894 | 65.33411 | 33888 ft | 441 kts | 302° |
| 2026-05-05 11:12 | 57.20798 | 65.24638 | 33889 ft | 444 kts | 315° |
| 2026-05-05 11:12 | 57.25280 | 65.16888 | 33890 ft | 444 kts | 315° |
| 2026-05-05 11:13 | 57.29779 | 65.09034 | 33895 ft | 445 kts | 315° |
| 2026-05-05 11:13 | 57.34272 | 65.01151 | 33898 ft | 445 kts | 315° |
| 2026-05-05 11:14 | 57.38729 | 64.93300 | 33897 ft | 444 kts | 315° |
| 2026-05-05 11:14 | 57.43206 | 64.85387 | 33895 ft | 444 kts | 315° |
| 2026-05-05 11:15 | 57.47675 | 64.77464 | 33891 ft | 444 kts | 315° |
| 2026-05-05 11:15 | 57.52136 | 64.69521 | 33885 ft | 443 kts | 315° |
| 2026-05-05 11:16 | 57.56588 | 64.61541 | 33879 ft | 443 kts | 315° |
| 2026-05-05 11:16 | 57.60997 | 64.53610 | 33881 ft | 442 kts | 315° |
| 2026-05-05 11:17 | 57.65425 | 64.45618 | 33876 ft | 442 kts | 315° |
| 2026-05-05 11:17 | 57.69849 | 64.37607 | 33874 ft | 442 kts | 315° |
| 2026-05-05 11:18 | 57.74257 | 64.29597 | 33873 ft | 441 kts | 315° |
| 2026-05-05 11:18 | 57.78629 | 64.21622 | 33870 ft | 441 kts | 315° |
| 2026-05-05 11:19 | 57.83018 | 64.13588 | 33870 ft | 441 kts | 315° |
| 2026-05-05 11:19 | 57.87330 | 64.05399 | 33871 ft | 440 kts | 313° |
| 2026-05-05 11:20 | 57.91598 | 63.97125 | 33872 ft | 440 kts | 313° |
| 2026-05-05 11:20 | 57.95866 | 63.88867 | 33868 ft | 440 kts | 314° |
| 2026-05-05 11:21 | 58.00142 | 63.80581 | 33867 ft | 440 kts | 314° |
| 2026-05-05 11:21 | 58.04405 | 63.72291 | 33866 ft | 440 kts | 314° |
| 2026-05-05 11:22 | 58.08634 | 63.64038 | 33871 ft | 439 kts | 314° |
| 2026-05-05 11:22 | 58.12856 | 63.55693 | 33872 ft | 439 kts | 313° |
| 2026-05-05 11:23 | 58.17021 | 63.47229 | 33873 ft | 439 kts | 313° |
| 2026-05-05 11:23 | 58.21181 | 63.38761 | 33872 ft | 438 kts | 313° |
| 2026-05-05 11:24 | 58.25338 | 63.30291 | 33870 ft | 438 kts | 313° |
| 2026-05-05 11:24 | 58.29466 | 63.21851 | 33870 ft | 437 kts | 313° |
| 2026-05-05 11:25 | 58.33604 | 63.13359 | 33865 ft | 437 kts | 313° |
| 2026-05-05 11:25 | 58.37726 | 63.04868 | 33866 ft | 436 kts | 313° |
| 2026-05-05 11:26 | 58.41837 | 62.96368 | 33862 ft | 436 kts | 313° |
| 2026-05-05 11:26 | 58.45943 | 62.87849 | 33861 ft | 435 kts | 313° |
| 2026-05-05 11:27 | 58.50037 | 62.79325 | 33858 ft | 434 kts | 313° |
| 2026-05-05 11:27 | 58.54051 | 62.70801 | 33858 ft | 434 kts | 311° |
| 2026-05-05 11:28 | 58.57863 | 62.61820 | 33852 ft | 434 kts | 310° |
| 2026-05-05 11:28 | 58.61663 | 62.52821 | 33852 ft | 433 kts | 310° |
| 2026-05-05 11:29 | 58.65449 | 62.43818 | 33850 ft | 433 kts | 310° |
| 2026-05-05 11:29 | 58.69230 | 62.34791 | 33854 ft | 433 kts | 310° |
| 2026-05-05 11:30 | 58.72980 | 62.25797 | 33856 ft | 433 kts | 309° |
| 2026-05-05 11:30 | 58.76745 | 62.16733 | 33860 ft | 432 kts | 309° |
| 2026-05-05 11:31 | 58.80495 | 62.07673 | 33857 ft | 432 kts | 309° |
| 2026-05-05 11:31 | 58.84236 | 61.98599 | 33860 ft | 431 kts | 309° |
| 2026-05-05 11:32 | 58.87943 | 61.89581 | 33863 ft | 430 kts | 309° |
| 2026-05-05 11:32 | 58.91661 | 61.80500 | 33862 ft | 430 kts | 309° |
| 2026-05-05 11:33 | 58.95369 | 61.71400 | 33865 ft | 429 kts | 309° |
| 2026-05-05 11:33 | 58.98547 | 61.61723 | 33860 ft | 429 kts | 296° |
| 2026-05-05 11:34 | 59.00335 | 61.50676 | 33852 ft | 431 kts | 282° |
| 2026-05-05 11:34 | 59.01420 | 61.39245 | 33851 ft | 430 kts | 282° |
| 2026-05-05 11:35 | 59.02514 | 61.27892 | 33849 ft | 429 kts | 282° |
| 2026-05-05 11:35 | 59.03603 | 61.16516 | 33839 ft | 428 kts | 282° |
| 2026-05-05 11:36 | 59.04680 | 61.05149 | 33834 ft | 427 kts | 282° |
| 2026-05-05 11:36 | 59.05746 | 60.93789 | 33831 ft | 426 kts | 282° |
| 2026-05-05 11:37 | 59.06798 | 60.82458 | 33828 ft | 426 kts | 282° |
| 2026-05-05 11:37 | 59.07666 | 60.73029 | 33824 ft | 426 kts | 282° |
| 2026-05-05 11:38 | 59.08868 | 60.59840 | 33827 ft | 426 kts | 282° |
| 2026-05-05 11:38 | 59.09718 | 60.50406 | 33830 ft | 426 kts | 282° |
| 2026-05-05 11:39 | 59.10732 | 60.39057 | 33826 ft | 425 kts | 282° |
| 2026-05-05 11:39 | 59.11734 | 60.27717 | 33823 ft | 425 kts | 282° |
| 2026-05-05 11:40 | 59.12727 | 60.16361 | 33825 ft | 425 kts | 281° |
| 2026-05-05 11:40 | 59.13710 | 60.04998 | 33830 ft | 425 kts | 281° |
| 2026-05-05 11:41 | 59.14683 | 59.93644 | 33827 ft | 425 kts | 281° |
| 2026-05-05 11:41 | 59.15639 | 59.82352 | 33816 ft | 424 kts | 281° |
| 2026-05-05 11:42 | 59.16591 | 59.70979 | 33814 ft | 424 kts | 281° |
| 2026-05-05 11:42 | 59.17531 | 59.59630 | 33833 ft | 424 kts | 281° |
| 2026-05-05 11:43 | 59.18461 | 59.48276 | 33815 ft | 423 kts | 281° |
| 2026-05-05 11:43 | 59.19375 | 59.37005 | 33823 ft | 423 kts | 281° |
| 2026-05-05 11:44 | 59.20285 | 59.25650 | 33818 ft | 422 kts | 280° |
| 2026-05-05 11:44 | 59.21182 | 59.14308 | 33813 ft | 422 kts | 280° |
| 2026-05-05 11:45 | 59.22063 | 59.03062 | 33828 ft | 421 kts | 280° |
| 2026-05-05 11:45 | 59.22937 | 58.91758 | 33820 ft | 421 kts | 280° |
| 2026-05-05 11:46 | 59.23803 | 58.80439 | 33818 ft | 421 kts | 279° |
| 2026-05-05 11:46 | 59.24658 | 58.69116 | 33835 ft | 420 kts | 279° |
| 2026-05-05 11:47 | 59.25501 | 58.57826 | 33817 ft | 420 kts | 279° |
| 2026-05-05 11:47 | 59.26328 | 58.46606 | 33829 ft | 419 kts | 279° |
| 2026-05-05 11:48 | 59.27559 | 58.29660 | 33815 ft | 419 kts | 279° |
| 2026-05-05 11:48 | 59.28367 | 58.18348 | 33813 ft | 419 kts | 279° |
| 2026-05-05 11:49 | 59.29163 | 58.07147 | 33820 ft | 418 kts | 279° |
| 2026-05-05 11:49 | 59.29956 | 57.95860 | 33824 ft | 418 kts | 279° |
| 2026-05-05 11:50 | 59.30744 | 57.84566 | 33812 ft | 418 kts | 278° |
| 2026-05-05 11:50 | 59.31523 | 57.73282 | 33811 ft | 418 kts | 278° |
| 2026-05-05 11:51 | 59.32292 | 57.61993 | 33810 ft | 418 kts | 278° |
| 2026-05-05 11:51 | 59.33046 | 57.50780 | 33801 ft | 418 kts | 278° |
| 2026-05-05 11:52 | 59.33797 | 57.39472 | 33808 ft | 418 kts | 278° |
| 2026-05-05 11:52 | 59.34538 | 57.28155 | 33802 ft | 418 kts | 278° |
| 2026-05-05 11:53 | 59.35262 | 57.16938 | 33804 ft | 418 kts | 277° |
| 2026-05-05 11:53 | 59.35964 | 57.05613 | 33800 ft | 418 kts | 276° |
| 2026-05-05 11:54 | 59.36536 | 56.94269 | 33808 ft | 418 kts | 276° |
| 2026-05-05 11:54 | 59.37104 | 56.82914 | 33799 ft | 418 kts | 276° |
| 2026-05-05 11:55 | 59.37675 | 56.71534 | 33800 ft | 418 kts | 276° |
| 2026-05-05 11:55 | 59.38235 | 56.60195 | 33798 ft | 417 kts | 276° |
| 2026-05-05 11:56 | 59.38782 | 56.48937 | 33793 ft | 417 kts | 276° |
| 2026-05-05 11:56 | 59.39321 | 56.37607 | 33788 ft | 416 kts | 275° |
| 2026-05-05 11:57 | 59.39851 | 56.26280 | 33784 ft | 416 kts | 275° |
| 2026-05-05 11:57 | 59.40370 | 56.14974 | 33782 ft | 415 kts | 275° |
| 2026-05-05 11:58 | 59.40878 | 56.03675 | 33770 ft | 415 kts | 275° |
| 2026-05-05 11:58 | 59.41373 | 55.92469 | 33767 ft | 414 kts | 275° |
| 2026-05-05 11:59 | 59.41860 | 55.81208 | 33769 ft | 414 kts | 275° |
| 2026-05-05 11:59 | 59.42338 | 55.69943 | 33759 ft | 413 kts | 275° |
| 2026-05-05 12:00 | 59.42805 | 55.58690 | 33759 ft | 413 kts | 274° |
| 2026-05-05 12:00 | 59.43261 | 55.47450 | 33754 ft | 413 kts | 274° |
| 2026-05-05 12:01 | 59.43706 | 55.36277 | 33759 ft | 412 kts | 274° |
| 2026-05-05 12:01 | 59.44143 | 55.25041 | 33752 ft | 412 kts | 274° |
| 2026-05-05 12:02 | 59.44570 | 55.13810 | 33756 ft | 412 kts | 274° |
| 2026-05-05 12:02 | 59.44988 | 55.02538 | 33754 ft | 412 kts | 274° |
| 2026-05-05 12:03 | 59.45396 | 54.91312 | 33753 ft | 412 kts | 274° |
| 2026-05-05 12:03 | 59.45794 | 54.80087 | 33750 ft | 411 kts | 274° |
| 2026-05-05 12:04 | 59.46179 | 54.68941 | 33748 ft | 410 kts | 274° |
| 2026-05-05 12:04 | 59.46557 | 54.57728 | 33753 ft | 410 kts | 273° |
| 2026-05-05 12:05 | 59.46925 | 54.46516 | 33749 ft | 410 kts | 273° |
| 2026-05-05 12:05 | 59.47282 | 54.35366 | 33746 ft | 410 kts | 273° |
| 2026-05-05 12:06 | 59.47630 | 54.24189 | 33741 ft | 409 kts | 273° |
| 2026-05-05 12:06 | 59.47968 | 54.13022 | 33738 ft | 408 kts | 273° |
| 2026-05-05 12:07 | 59.48301 | 54.01875 | 33736 ft | 407 kts | 272° |
| 2026-05-05 12:07 | 59.48615 | 53.90823 | 33731 ft | 406 kts | 272° |
| 2026-05-05 12:08 | 59.48919 | 53.79718 | 33722 ft | 406 kts | 272° |
| 2026-05-05 12:08 | 59.49217 | 53.68611 | 33717 ft | 405 kts | 272° |
| 2026-05-05 12:09 | 59.49505 | 53.57536 | 33717 ft | 405 kts | 272° |
| 2026-05-05 12:09 | 59.49782 | 53.46516 | 33726 ft | 405 kts | 272° |
| 2026-05-05 12:10 | 59.50051 | 53.35441 | 33715 ft | 405 kts | 272° |
| 2026-05-05 12:10 | 59.50311 | 53.24366 | 33723 ft | 405 kts | 272° |
| 2026-05-05 12:11 | 59.50612 | 53.13306 | 33716 ft | 405 kts | 274° |
| 2026-05-05 12:11 | 59.51221 | 53.02275 | 33718 ft | 405 kts | 275° |
| 2026-05-05 12:12 | 59.51824 | 52.91288 | 33723 ft | 405 kts | 275° |
| 2026-05-05 12:12 | 59.52384 | 52.80235 | 33721 ft | 405 kts | 274° |
| 2026-05-05 12:13 | 59.52925 | 52.69174 | 33709 ft | 405 kts | 274° |
| 2026-05-05 12:13 | 59.53455 | 52.58132 | 33715 ft | 404 kts | 274° |
| 2026-05-05 12:14 | 59.53976 | 52.47099 | 33702 ft | 404 kts | 274° |
| 2026-05-05 12:14 | 59.54485 | 52.36131 | 33711 ft | 404 kts | 274° |
| 2026-05-05 12:15 | 59.54987 | 52.25107 | 33692 ft | 403 kts | 274° |
| 2026-05-05 12:15 | 59.55479 | 52.14084 | 33696 ft | 403 kts | 274° |
| 2026-05-05 12:16 | 59.55962 | 52.03073 | 33694 ft | 402 kts | 273° |
| 2026-05-05 12:16 | 59.56434 | 51.92150 | 33691 ft | 402 kts | 273° |
| 2026-05-05 12:17 | 59.56904 | 51.81155 | 33688 ft | 402 kts | 273° |
| 2026-05-05 12:17 | 59.57362 | 51.70207 | 33682 ft | 401 kts | 273° |
| 2026-05-05 12:18 | 59.57811 | 51.59232 | 33678 ft | 401 kts | 273° |
| 2026-05-05 12:18 | 59.58252 | 51.48234 | 33679 ft | 401 kts | 272° |
| 2026-05-05 12:19 | 59.58682 | 51.37256 | 33675 ft | 401 kts | 272° |
| 2026-05-05 12:19 | 59.59103 | 51.26280 | 33673 ft | 401 kts | 272° |
| 2026-05-05 12:20 | 59.59515 | 51.15312 | 33672 ft | 401 kts | 272° |
| 2026-05-05 12:20 | 59.59917 | 51.04373 | 33671 ft | 401 kts | 272° |
| 2026-05-05 12:21 | 59.60311 | 50.93382 | 33669 ft | 401 kts | 272° |
| 2026-05-05 12:21 | 59.60590 | 50.82427 | 33672 ft | 401 kts | 269° |
| 2026-05-05 12:22 | 59.60580 | 50.71407 | 33673 ft | 401 kts | 269° |
| 2026-05-05 12:22 | 59.60569 | 50.60396 | 33670 ft | 401 kts | 269° |
| 2026-05-05 12:23 | 59.60549 | 50.49357 | 33677 ft | 401 kts | 268° |
| 2026-05-05 12:23 | 59.60518 | 50.38412 | 33677 ft | 401 kts | 268° |
| 2026-05-05 12:24 | 59.60491 | 50.27414 | 33678 ft | 401 kts | 269° |
| 2026-05-05 12:24 | 59.60492 | 50.16397 | 33678 ft | 401 kts | 269° |
| 2026-05-05 12:25 | 59.60482 | 50.05378 | 33672 ft | 401 kts | 269° |
| 2026-05-05 12:25 | 59.60458 | 49.94349 | 33670 ft | 401 kts | 268° |
| 2026-05-05 12:26 | 59.60425 | 49.83401 | 33672 ft | 401 kts | 268° |
| 2026-05-05 12:26 | 59.60382 | 49.72380 | 33666 ft | 401 kts | 268° |
| 2026-05-05 12:27 | 59.60339 | 49.63208 | 33660 ft | 401 kts | 268° |
| 2026-05-05 12:27 | 59.60279 | 49.52181 | 33661 ft | 401 kts | 268° |
| 2026-05-05 12:28 | 59.60210 | 49.41214 | 33660 ft | 401 kts | 268° |
| 2026-05-05 12:28 | 59.60132 | 49.30183 | 33663 ft | 402 kts | 268° |
| 2026-05-05 12:29 | 59.60044 | 49.19136 | 33664 ft | 402 kts | 268° |
| 2026-05-05 12:29 | 59.59947 | 49.08150 | 33662 ft | 402 kts | 268° |
| 2026-05-05 12:30 | 59.59841 | 48.97063 | 33664 ft | 403 kts | 268° |
| 2026-05-05 12:30 | 59.59715 | 48.85983 | 33669 ft | 403 kts | 268° |
| 2026-05-05 12:31 | 59.59573 | 48.74989 | 33670 ft | 404 kts | 268° |
| 2026-05-05 12:31 | 59.59422 | 48.63900 | 33672 ft | 404 kts | 267° |
| 2026-05-05 12:32 | 59.59263 | 48.52780 | 33675 ft | 405 kts | 267° |
| 2026-05-05 12:32 | 59.59095 | 48.41720 | 33677 ft | 405 kts | 267° |
| 2026-05-05 12:33 | 59.58917 | 48.30608 | 33675 ft | 405 kts | 267° |
| 2026-05-05 12:33 | 59.58739 | 48.19471 | 33675 ft | 405 kts | 267° |
| 2026-05-05 12:34 | 59.58557 | 48.08398 | 33676 ft | 405 kts | 267° |
| 2026-05-05 12:34 | 59.58362 | 47.97266 | 33676 ft | 406 kts | 267° |
| 2026-05-05 12:35 | 59.58156 | 47.86130 | 33673 ft | 406 kts | 267° |
| 2026-05-05 12:35 | 59.57943 | 47.75040 | 33672 ft | 406 kts | 267° |
| 2026-05-05 12:36 | 59.57718 | 47.63877 | 33674 ft | 407 kts | 267° |
| 2026-05-05 12:36 | 59.57484 | 47.52718 | 33674 ft | 407 kts | 267° |
| 2026-05-05 12:37 | 59.57240 | 47.41536 | 33672 ft | 408 kts | 267° |
| 2026-05-05 12:37 | 59.56986 | 47.30338 | 33674 ft | 409 kts | 267° |
| 2026-05-05 12:38 | 59.56725 | 47.19170 | 33675 ft | 409 kts | 267° |
| 2026-05-05 12:38 | 59.56457 | 47.07943 | 33679 ft | 410 kts | 267° |
| 2026-05-05 12:39 | 59.56181 | 46.96668 | 33685 ft | 411 kts | 267° |
| 2026-05-05 12:39 | 59.55895 | 46.85431 | 33682 ft | 412 kts | 267° |
| 2026-05-05 12:40 | 59.55597 | 46.74135 | 33686 ft | 413 kts | 266° |
| 2026-05-05 12:40 | 59.55288 | 46.62808 | 33683 ft | 414 kts | 266° |
| 2026-05-05 12:41 | 59.54969 | 46.51465 | 33686 ft | 414 kts | 266° |
| 2026-05-05 12:41 | 59.54641 | 46.40128 | 33688 ft | 415 kts | 266° |
| 2026-05-05 12:42 | 59.54302 | 46.28804 | 33687 ft | 416 kts | 266° |
| 2026-05-05 12:42 | 59.53953 | 46.17407 | 33689 ft | 416 kts | 266° |
| 2026-05-05 12:43 | 59.53594 | 46.06076 | 33691 ft | 417 kts | 266° |
| 2026-05-05 12:43 | 59.53222 | 45.94608 | 33690 ft | 418 kts | 266° |
| 2026-05-05 12:44 | 59.52841 | 45.83181 | 33696 ft | 418 kts | 266° |
| 2026-05-05 12:44 | 59.52452 | 45.71810 | 33695 ft | 418 kts | 266° |
| 2026-05-05 12:45 | 59.52049 | 45.60354 | 33699 ft | 419 kts | 266° |
| 2026-05-05 12:45 | 59.51938 | 45.48875 | 33697 ft | 419 kts | 272° |
| 2026-05-05 12:46 | 59.52451 | 45.37450 | 33696 ft | 419 kts | 277° |
| 2026-05-05 12:46 | 59.53169 | 45.26102 | 33694 ft | 419 kts | 276° |
| 2026-05-05 12:47 | 59.53871 | 45.14682 | 33694 ft | 419 kts | 276° |
| 2026-05-05 12:47 | 59.54565 | 45.03253 | 33694 ft | 419 kts | 276° |
| 2026-05-05 12:48 | 59.55245 | 44.91891 | 33692 ft | 419 kts | 276° |
| 2026-05-05 12:48 | 59.55918 | 44.80500 | 33694 ft | 419 kts | 276° |
| 2026-05-05 12:49 | 59.56618 | 44.69051 | 33694 ft | 420 kts | 277° |
| 2026-05-05 12:49 | 59.57462 | 44.57651 | 33695 ft | 420 kts | 277° |
| 2026-05-05 12:50 | 59.58289 | 44.46320 | 33696 ft | 420 kts | 277° |
| 2026-05-05 12:50 | 59.59096 | 44.34878 | 33699 ft | 420 kts | 277° |
| 2026-05-05 12:51 | 59.59889 | 44.23427 | 33704 ft | 420 kts | 277° |
| 2026-05-05 12:51 | 59.60670 | 44.11988 | 33703 ft | 420 kts | 277° |
| 2026-05-05 12:52 | 59.61437 | 44.00614 | 33709 ft | 420 kts | 277° |
| 2026-05-05 12:52 | 59.62202 | 43.89126 | 33708 ft | 420 kts | 277° |
| 2026-05-05 12:53 | 59.62951 | 43.77720 | 33709 ft | 420 kts | 276° |
| 2026-05-05 12:53 | 59.63694 | 43.66240 | 33712 ft | 420 kts | 276° |
| 2026-05-05 12:54 | 59.64790 | 43.49027 | 33720 ft | 420 kts | 276° |
| 2026-05-05 12:55 | 59.65502 | 43.37627 | 33719 ft | 420 kts | 276° |
| 2026-05-05 12:55 | 59.66208 | 43.26155 | 33721 ft | 419 kts | 276° |
| 2026-05-05 12:56 | 59.66905 | 43.14675 | 33723 ft | 419 kts | 276° |
| 2026-05-05 12:56 | 59.67586 | 43.03287 | 33724 ft | 418 kts | 276° |
| 2026-05-05 12:57 | 59.68261 | 42.91830 | 33721 ft | 417 kts | 276° |
| 2026-05-05 12:57 | 59.68919 | 42.80496 | 33719 ft | 417 kts | 276° |
| 2026-05-05 12:58 | 59.69570 | 42.69097 | 33723 ft | 416 kts | 275° |
| 2026-05-05 12:58 | 59.70206 | 42.57688 | 33719 ft | 416 kts | 275° |
| 2026-05-05 12:59 | 59.70803 | 42.46287 | 33715 ft | 415 kts | 275° |
| 2026-05-05 12:59 | 59.71386 | 42.34984 | 33722 ft | 414 kts | 275° |
| 2026-05-05 13:00 | 59.72255 | 42.17887 | 33719 ft | 414 kts | 275° |
| 2026-05-05 13:01 | 59.73370 | 41.95245 | 33724 ft | 414 kts | 275° |
| 2026-05-05 13:01 | 59.73915 | 41.83882 | 33726 ft | 413 kts | 274° |
| 2026-05-05 13:02 | 59.74450 | 41.72523 | 33731 ft | 413 kts | 274° |
| 2026-05-05 13:02 | 59.74980 | 41.61236 | 33728 ft | 413 kts | 275° |
| 2026-05-05 13:03 | 59.75860 | 41.49934 | 33741 ft | 414 kts | 278° |
| 2026-05-05 13:03 | 59.76809 | 41.38667 | 33739 ft | 414 kts | 278° |
| 2026-05-05 13:04 | 59.77742 | 41.27387 | 33738 ft | 413 kts | 278° |
| 2026-05-05 13:04 | 59.78656 | 41.16190 | 33739 ft | 413 kts | 277° |
| 2026-05-05 13:05 | 59.79566 | 41.04908 | 33739 ft | 413 kts | 277° |
| 2026-05-05 13:05 | 59.80468 | 40.93595 | 33742 ft | 413 kts | 277° |
| 2026-05-05 13:06 | 59.81352 | 40.82392 | 33736 ft | 413 kts | 277° |
| 2026-05-05 13:06 | 59.82234 | 40.71094 | 33739 ft | 413 kts | 277° |
| 2026-05-05 13:07 | 59.83102 | 40.59830 | 33738 ft | 412 kts | 277° |
| 2026-05-05 13:07 | 59.83959 | 40.48595 | 33741 ft | 412 kts | 277° |
| 2026-05-05 13:08 | 59.84808 | 40.37316 | 33741 ft | 412 kts | 277° |
| 2026-05-05 13:08 | 59.85648 | 40.26039 | 33742 ft | 411 kts | 276° |
| 2026-05-05 13:09 | 59.86472 | 40.14835 | 33742 ft | 411 kts | 276° |
| 2026-05-05 13:09 | 59.87290 | 40.03569 | 33744 ft | 411 kts | 276° |
| 2026-05-05 13:10 | 59.88098 | 39.92312 | 33746 ft | 411 kts | 276° |
| 2026-05-05 13:10 | 59.88897 | 39.81043 | 33753 ft | 410 kts | 276° |
| 2026-05-05 13:11 | 59.89681 | 39.69838 | 33751 ft | 410 kts | 276° |
| 2026-05-05 13:11 | 59.90457 | 39.58606 | 33743 ft | 410 kts | 276° |
| 2026-05-05 13:12 | 59.91226 | 39.47332 | 33747 ft | 410 kts | 276° |
| 2026-05-05 13:12 | 59.91987 | 39.36054 | 33741 ft | 409 kts | 275° |
| 2026-05-05 13:13 | 59.92733 | 39.24863 | 33748 ft | 409 kts | 275° |
| 2026-05-05 13:13 | 59.93471 | 39.13579 | 33741 ft | 409 kts | 275° |
| 2026-05-05 13:14 | 59.94200 | 39.02321 | 33744 ft | 409 kts | 275° |
| 2026-05-05 13:14 | 59.94916 | 38.91116 | 33745 ft | 408 kts | 275° |
| 2026-05-05 13:15 | 59.95625 | 38.79863 | 33745 ft | 408 kts | 275° |
| 2026-05-05 13:15 | 59.96207 | 38.70510 | 33745 ft | 408 kts | 275° |
| 2026-05-05 13:16 | 59.96897 | 38.59268 | 33747 ft | 408 kts | 275° |
| 2026-05-05 13:16 | 59.97548 | 38.48513 | 33747 ft | 408 kts | 275° |
| 2026-05-05 13:17 | 59.98219 | 38.37275 | 33748 ft | 407 kts | 274° |
| 2026-05-05 13:17 | 59.98881 | 38.26016 | 33741 ft | 407 kts | 274° |
| 2026-05-05 13:18 | 59.99528 | 38.14846 | 33747 ft | 407 kts | 274° |
| 2026-05-05 13:18 | 60.00169 | 38.03626 | 33746 ft | 406 kts | 274° |
| 2026-05-05 13:19 | 60.00800 | 37.92392 | 33742 ft | 406 kts | 274° |
| 2026-05-05 13:19 | 60.01420 | 37.81173 | 33737 ft | 405 kts | 274° |
| 2026-05-05 13:20 | 60.02033 | 37.69964 | 33737 ft | 405 kts | 274° |
| 2026-05-05 13:20 | 60.02631 | 37.58833 | 33732 ft | 405 kts | 274° |
| 2026-05-05 13:21 | 60.03224 | 37.47606 | 33733 ft | 405 kts | 274° |
| 2026-05-05 13:21 | 60.03807 | 37.36400 | 33731 ft | 405 kts | 273° |
| 2026-05-05 13:22 | 60.04378 | 37.25248 | 33729 ft | 404 kts | 273° |
| 2026-05-05 13:22 | 60.04942 | 37.14047 | 33735 ft | 404 kts | 273° |
| 2026-05-05 13:23 | 60.05496 | 37.02835 | 33728 ft | 404 kts | 273° |
| 2026-05-05 13:23 | 60.06037 | 36.91690 | 33728 ft | 404 kts | 273° |
| 2026-05-05 13:24 | 60.06570 | 36.80479 | 33726 ft | 404 kts | 273° |
| 2026-05-05 13:24 | 60.07094 | 36.69253 | 33727 ft | 404 kts | 272° |
| 2026-05-05 13:25 | 60.07608 | 36.58046 | 33724 ft | 404 kts | 272° |
| 2026-05-05 13:25 | 60.08109 | 36.46912 | 33720 ft | 404 kts | 272° |
| 2026-05-05 13:26 | 60.08604 | 36.35690 | 33717 ft | 403 kts | 272° |
| 2026-05-05 13:26 | 60.09091 | 36.24463 | 33717 ft | 403 kts | 272° |
| 2026-05-05 13:27 | 60.09563 | 36.13321 | 33717 ft | 403 kts | 272° |
| 2026-05-05 13:27 | 60.10028 | 36.02144 | 33711 ft | 403 kts | 272° |
| 2026-05-05 13:28 | 60.10483 | 35.90926 | 33703 ft | 402 kts | 272° |
| 2026-05-05 13:28 | 60.10927 | 35.79735 | 33705 ft | 402 kts | 272° |
| 2026-05-05 13:29 | 60.11361 | 35.68605 | 33709 ft | 402 kts | 272° |
| 2026-05-05 13:29 | 60.11787 | 35.57395 | 33712 ft | 402 kts | 271° |
| 2026-05-05 13:30 | 60.12204 | 35.46190 | 33715 ft | 402 kts | 271° |
| 2026-05-05 13:30 | 60.12608 | 35.35078 | 33717 ft | 402 kts | 271° |
| 2026-05-05 13:31 | 60.13006 | 35.23876 | 33715 ft | 402 kts | 271° |
| 2026-05-05 13:31 | 60.13391 | 35.12690 | 33720 ft | 401 kts | 271° |
| 2026-05-05 13:32 | 60.13770 | 35.01571 | 33716 ft | 401 kts | 271° |
| 2026-05-05 13:32 | 60.14141 | 34.90395 | 33716 ft | 401 kts | 271° |
| 2026-05-05 13:33 | 60.14500 | 34.79247 | 33715 ft | 400 kts | 271° |
| 2026-05-05 13:33 | 60.14849 | 34.68096 | 33716 ft | 400 kts | 271° |
| 2026-05-05 13:34 | 60.15189 | 34.56959 | 33717 ft | 399 kts | 270° |
| 2026-05-05 13:34 | 60.15517 | 34.45889 | 33711 ft | 399 kts | 270° |
| 2026-05-05 13:35 | 60.15838 | 34.34764 | 33711 ft | 398 kts | 270° |
| 2026-05-05 13:35 | 60.16149 | 34.23660 | 33711 ft | 398 kts | 270° |
| 2026-05-05 13:36 | 60.16450 | 34.12545 | 33708 ft | 397 kts | 270° |
| 2026-05-05 13:36 | 60.16739 | 34.01529 | 33588 ft | 398 kts | 270° |
| 2026-05-05 13:37 | 60.16882 | 33.95984 | 33312 ft | 397 kts | 270° |
| 2026-05-05 13:37 | 60.17022 | 33.90451 | 33044 ft | 396 kts | 270° |
| 2026-05-05 13:37 | 60.17160 | 33.84886 | 32424 ft | 399 kts | 270° |
| 2026-05-05 13:37 | 60.17296 | 33.79289 | 31516 ft | 403 kts | 270° |
| 2026-05-05 13:38 | 60.17431 | 33.73688 | 30901 ft | 399 kts | 270° |
| 2026-05-05 13:38 | 60.17562 | 33.68177 | 30484 ft | 393 kts | 270° |
| 2026-05-05 13:38 | 60.17690 | 33.62704 | 29974 ft | 388 kts | 270° |
| 2026-05-05 13:38 | 60.17811 | 33.57397 | 29450 ft | 382 kts | 269° |
| 2026-05-05 13:39 | 60.17929 | 33.52119 | 28965 ft | 374 kts | 269° |
| 2026-05-05 13:39 | 60.18043 | 33.46946 | 28492 ft | 365 kts | 269° |
| 2026-05-05 13:39 | 60.18152 | 33.41881 | 28031 ft | 358 kts | 269° |
| 2026-05-05 13:39 | 60.18257 | 33.36946 | 27573 ft | 350 kts | 269° |
| 2026-05-05 13:40 | 60.18358 | 33.32101 | 27137 ft | 344 kts | 269° |
| 2026-05-05 13:40 | 60.18453 | 33.27372 | 26707 ft | 343 kts | 269° |
| 2026-05-05 13:40 | 60.18529 | 33.22582 | 26291 ft | 342 kts | 267° |
| 2026-05-05 13:40 | 60.18413 | 33.17684 | 26039 ft | 356 kts | 262° |
| 2026-05-05 13:41 | 60.18069 | 33.12765 | 25913 ft | 355 kts | 258° |
| 2026-05-05 13:41 | 60.17507 | 33.07932 | 25342 ft | 356 kts | 253° |
| 2026-05-05 13:41 | 60.16807 | 33.03098 | 24404 ft | 364 kts | 253° |
| 2026-05-05 13:41 | 60.16104 | 32.98200 | 23762 ft | 362 kts | 253° |
| 2026-05-05 13:42 | 60.15421 | 32.93417 | 23428 ft | 350 kts | 253° |
| 2026-05-05 13:42 | 60.14765 | 32.88824 | 22963 ft | 342 kts | 253° |
| 2026-05-05 13:42 | 60.14114 | 32.84287 | 22521 ft | 333 kts | 253° |
| 2026-05-05 13:42 | 60.13480 | 32.79875 | 22085 ft | 325 kts | 253° |
| 2026-05-05 13:43 | 60.12859 | 32.75569 | 21653 ft | 317 kts | 253° |
| 2026-05-05 13:43 | 60.12252 | 32.71369 | 21225 ft | 310 kts | 253° |
| 2026-05-05 13:43 | 60.11654 | 32.67252 | 20807 ft | 303 kts | 253° |
| 2026-05-05 13:43 | 60.11072 | 32.63247 | 20410 ft | 303 kts | 253° |
| 2026-05-05 13:44 | 60.10479 | 32.59181 | 19996 ft | 303 kts | 253° |
| 2026-05-05 13:44 | 60.09891 | 32.55154 | 19591 ft | 298 kts | 253° |
| 2026-05-05 13:44 | 60.09309 | 32.51179 | 19188 ft | 296 kts | 253° |
| 2026-05-05 13:44 | 60.08726 | 32.47210 | 18777 ft | 296 kts | 253° |
| 2026-05-05 13:45 | 60.08148 | 32.43280 | 18375 ft | 292 kts | 253° |
| 2026-05-05 13:45 | 60.07575 | 32.39391 | 17974 ft | 290 kts | 253° |
| 2026-05-05 13:45 | 60.07011 | 32.35571 | 17559 ft | 288 kts | 253° |
| 2026-05-05 13:45 | 60.06443 | 32.31737 | 17158 ft | 286 kts | 253° |
| 2026-05-05 13:46 | 60.05875 | 32.27928 | 16752 ft | 284 kts | 253° |
| 2026-05-05 13:46 | 60.05260 | 32.24180 | 16360 ft | 282 kts | 251° |
| 2026-05-05 13:46 | 60.04618 | 32.20480 | 15962 ft | 281 kts | 251° |
| 2026-05-05 13:46 | 60.03975 | 32.16801 | 15567 ft | 278 kts | 251° |
| 2026-05-05 13:47 | 60.03340 | 32.13141 | 15160 ft | 277 kts | 251° |
| 2026-05-05 13:47 | 60.02714 | 32.09510 | 14776 ft | 275 kts | 251° |
| 2026-05-05 13:47 | 60.02101 | 32.05943 | 14382 ft | 274 kts | 251° |
| 2026-05-05 13:47 | 60.01484 | 32.02349 | 14015 ft | 272 kts | 251° |
| 2026-05-05 13:48 | 60.00871 | 31.98782 | 13623 ft | 271 kts | 252° |
| 2026-05-05 13:48 | 60.00258 | 31.95224 | 13220 ft | 269 kts | 251° |
| 2026-05-05 13:48 | 59.99649 | 31.91684 | 12832 ft | 270 kts | 251° |
| 2026-05-05 13:48 | 59.99036 | 31.88136 | 12435 ft | 269 kts | 251° |
| 2026-05-05 13:49 | 59.98425 | 31.84602 | 12032 ft | 269 kts | 251° |
| 2026-05-05 13:49 | 59.97815 | 31.81074 | 11632 ft | 268 kts | 251° |
| 2026-05-05 13:49 | 59.97204 | 31.77554 | 11239 ft | 269 kts | 251° |
| 2026-05-05 13:49 | 59.96598 | 31.74065 | 10846 ft | 268 kts | 250° |
| 2026-05-05 13:50 | 59.95985 | 31.70545 | 10453 ft | 267 kts | 250° |
| 2026-05-05 13:50 | 59.95373 | 31.67043 | 10077 ft | 267 kts | 250° |
| 2026-05-05 13:50 | 59.94772 | 31.63614 | 9966 ft | 254 kts | 250° |
| 2026-05-05 13:50 | 59.94199 | 31.60357 | 9772 ft | 246 kts | 250° |
| 2026-05-05 13:51 | 59.93632 | 31.57137 | 9583 ft | 247 kts | 249° |
| 2026-05-05 13:51 | 59.93060 | 31.53900 | 9446 ft | 247 kts | 249° |
| 2026-05-05 13:51 | 59.92489 | 31.50675 | 9285 ft | 247 kts | 249° |
| 2026-05-05 13:51 | 59.91916 | 31.47438 | 8944 ft | 247 kts | 249° |
| 2026-05-05 13:52 | 59.91346 | 31.44223 | 8588 ft | 244 kts | 249° |
| 2026-05-05 13:52 | 59.90790 | 31.41088 | 8229 ft | 240 kts | 249° |
| 2026-05-05 13:52 | 59.90236 | 31.37978 | 7879 ft | 236 kts | 249° |
| 2026-05-05 13:52 | 59.89690 | 31.34913 | 7528 ft | 232 kts | 249° |
| 2026-05-05 13:53 | 59.89154 | 31.31910 | 7207 ft | 228 kts | 249° |
| 2026-05-05 13:53 | 59.88630 | 31.28986 | 6864 ft | 225 kts | 249° |
| 2026-05-05 13:53 | 59.88105 | 31.26065 | 6526 ft | 223 kts | 249° |
| 2026-05-05 13:53 | 59.87587 | 31.23172 | 6197 ft | 220 kts | 249° |
| 2026-05-05 13:54 | 59.87073 | 31.20308 | 5858 ft | 218 kts | 249° |
| 2026-05-05 13:54 | 59.86413 | 31.17525 | 5746 ft | 237 kts | 234° |
| 2026-05-05 13:54 | 59.85189 | 31.15285 | 5727 ft | 242 kts | 212° |
| 2026-05-05 13:54 | 59.83660 | 31.13972 | 5723 ft | 246 kts | 206° |
| 2026-05-05 13:55 | 59.82074 | 31.12697 | 5727 ft | 246 kts | 206° |
| 2026-05-05 13:55 | 59.80491 | 31.11404 | 5727 ft | 245 kts | 206° |
| 2026-05-05 13:55 | 59.78907 | 31.10094 | 5730 ft | 247 kts | 206° |
| 2026-05-05 13:55 | 59.77327 | 31.08783 | 5729 ft | 245 kts | 206° |
| 2026-05-05 13:56 | 59.75701 | 31.07684 | 5729 ft | 249 kts | 198° |
| 2026-05-05 13:56 | 59.73998 | 31.07157 | 5725 ft | 252 kts | 191° |
| 2026-05-05 13:56 | 59.72250 | 31.06834 | 5731 ft | 251 kts | 191° |
| 2026-05-05 13:56 | 59.70498 | 31.06488 | 5730 ft | 253 kts | 191° |
| 2026-05-05 13:57 | 59.68750 | 31.06049 | 5730 ft | 252 kts | 197° |
| 2026-05-05 13:57 | 59.67089 | 31.05018 | 5726 ft | 248 kts | 208° |
| 2026-05-05 13:57 | 59.65561 | 31.03448 | 5726 ft | 246 kts | 213° |
| 2026-05-05 13:57 | 59.64056 | 31.01832 | 5727 ft | 247 kts | 212° |
| 2026-05-05 13:58 | 59.62560 | 31.00251 | 5727 ft | 246 kts | 212° |
| 2026-05-05 13:58 | 59.61127 | 30.98442 | 5730 ft | 244 kts | 221° |
| 2026-05-05 13:58 | 59.59901 | 30.96128 | 5733 ft | 243 kts | 231° |
| 2026-05-05 13:58 | 59.58958 | 30.93389 | 5734 ft | 241 kts | 250° |
| 2026-05-05 13:59 | 59.59514 | 30.87021 | 5732 ft | 257 kts | 306° |
| 2026-05-05 13:59 | 59.60960 | 30.84896 | 5736 ft | 270 kts | 328° |
| 2026-05-05 14:00 | 59.64635 | 30.82792 | 5732 ft | 279 kts | 343° |
| 2026-05-05 14:00 | 59.65904 | 30.82315 | 5735 ft | 280 kts | 343° |
| 2026-05-05 14:00 | 59.68462 | 30.81367 | 5670 ft | 278 kts | 343° |
| 2026-05-05 14:00 | 59.70343 | 30.80486 | 5153 ft | 274 kts | 330° |
| 2026-05-05 14:01 | 59.71850 | 30.78411 | 4591 ft | 259 kts | 304° |
| 2026-05-05 14:01 | 59.72684 | 30.75374 | 3980 ft | 248 kts | 281° |
| 2026-05-05 14:01 | 59.73049 | 30.72050 | 3408 ft | 245 kts | 278° |
| 2026-05-05 14:01 | 59.73395 | 30.68842 | 3095 ft | 236 kts | 279° |
| 2026-05-05 14:02 | 59.73749 | 30.65640 | 3011 ft | 238 kts | 280° |
| 2026-05-05 14:02 | 59.74109 | 30.62449 | 2916 ft | 236 kts | 280° |
| 2026-05-05 14:02 | 59.74465 | 30.59323 | 2826 ft | 226 kts | 280° |
| 2026-05-05 14:02 | 59.74806 | 30.56365 | 2745 ft | 214 kts | 282° |
| 2026-05-05 14:03 | 59.75227 | 30.53622 | 2645 ft | 201 kts | 284° |
| 2026-05-05 14:03 | 59.75636 | 30.51063 | 2364 ft | 190 kts | 285° |
| 2026-05-05 14:03 | 59.76000 | 30.48698 | 2343 ft | 171 kts | 285° |
| 2026-05-05 14:03 | 59.76323 | 30.46538 | 2115 ft | 159 kts | 284° |
| 2026-05-05 14:04 | 59.76620 | 30.44515 | 1875 ft | 145 kts | 286° |
| 2026-05-05 14:04 | 59.76891 | 30.42716 | 1689 ft | 128 kts | 285° |
| 2026-05-05 14:04 | 59.77135 | 30.41083 | 1520 ft | 123 kts | 285° |
| 2026-05-05 14:04 | 59.77298 | 30.39994 | 1411 ft | 125 kts | 285° |
| 2026-05-05 14:05 | 59.77621 | 30.37803 | 1172 ft | 123 kts | 286° |
| 2026-05-05 14:05 | 59.77868 | 30.36143 | 993 ft | 129 kts | 286° |
| 2026-05-05 14:05 | 59.78038 | 30.34988 | 882 ft | 135 kts | 287° |
| 2026-05-05 14:05 | 59.78305 | 30.33204 | 683 ft | 134 kts | 287° |
| 2026-05-05 14:06 | 59.78565 | 30.31447 | 511 ft | 134 kts | 288° |
| 2026-05-05 14:06 | 59.78835 | 30.29612 | 300 ft | 142 kts | 287° |
| 2026-05-05 14:06 | 59.79107 | 30.27790 | 98 ft | 131 kts | 288° |
| 2026-05-05 14:06 | 59.79322 | 30.26335 | 83 ft | 89 kts | 284° |
| 2026-05-05 14:07 | 59.79436 | 30.25558 | 83 ft | 20 kts | 287° |
| 2026-05-05 14:07 | 59.79468 | 30.25465 | 83 ft | 2 kts | 356° |
| 2026-05-05 14:07 | 59.79481 | 30.25489 | 86 ft | 3 kts | 47° |
| 2026-05-05 14:07 | 59.79489 | 30.25566 | 84 ft | 10 kts | 74° |
| 2026-05-05 14:08 | 59.79519 | 30.25767 | 86 ft | 20 kts | 74° |
| 2026-05-05 14:08 | 59.79570 | 30.25981 | 84 ft | 11 kts | 22° |
| 2026-05-05 14:08 | 59.79631 | 30.25929 | 85 ft | 11 kts | 298° |
| 2026-05-05 14:08 | 59.79665 | 30.25830 | 84 ft | 0 kts | 287° |